Time;durP1;ratioP1;P1;durP2;ratioP2;P2;SDS_P1;SDS_P2;PMS_P1;PMS_P2;Temp;Humidity;BMP_temperature;BMP_pressure;BME280_temperature;BME280_humidity;BME280_pressure;Samples;Min_cycle;Max_cycle;Signal;HPM_P1;HPM_P2
2023/01/16 00:02:00;;;;;;;;;;;;;;;1.17;75.64;91770.53;2071627;69;20091;-76
2023/01/16 00:04:26;;;;;;;;;;;;;;;1.25;74.95;91754.56;2071625;69;20092;-70
2023/01/16 00:06:51;;;;;;;;;;;;;;;1.27;74.40;91757.47;2071208;69;20134;-73
2023/01/16 00:09:17;;;;;;;;;;;;;;;1.29;74.39;91747.88;2071076;69;20399;-73
2023/01/16 00:11:43;;;;;;;;;;;;;;;1.31;74.82;91740.44;2071316;69;20053;-71
2023/01/16 00:14:09;;;;;;;;;;;;;;;1.23;73.82;91734.97;2071506;69;20052;-72
2023/01/16 00:16:36;;;;;;;;;;;;;;;1.25;74.31;91732.38;2068247;69;20113;-72
2023/01/16 00:19:02;;;;;;;;;;;;;;;1.30;74.41;91735.47;2068266;69;20048;-71
2023/01/16 00:21:27;;;;;;;;;;;;;;;1.07;74.68;91735.75;2071564;69;20051;-74
2023/01/16 00:23:54;;;;;;;;;;;;;;;1.11;74.40;91728.50;2071491;69;20036;-78
2023/01/16 00:26:19;;;;;;;;;;;;;;;1.19;73.90;91723.59;2071652;69;20090;-75
2023/01/16 00:28:45;;;;;;;;;;;;;;;1.21;74.10;91726.50;2071565;69;20068;-79
2023/01/16 00:31:11;;;;;;;;;;;;;;;1.12;73.38;91726.44;2071533;69;20447;-79
2023/01/16 00:33:37;;;;;;;;;;;;;;;1.08;74.65;91728.91;2071725;69;20482;-72
2023/01/16 00:36:02;;;;;;;;;;;;;;;1.17;73.89;91726.19;2072005;69;20047;-72
2023/01/16 00:38:28;;;;;;;;;;;;;;;1.15;74.22;91722.53;2072052;69;20052;-71
2023/01/16 00:40:53;;;;;;;;;;;;;;;1.09;74.48;91708.91;2071971;69;20036;-73
2023/01/16 00:43:19;;;;;;;;;;;;;;;1.10;74.39;91704.09;2068657;69;20116;-71
2023/01/16 00:45:45;;;;;;;;;;;;;;;1.15;73.72;91690.00;2068597;69;20048;-74
2023/01/16 00:48:10;;;;;;;;;;;;;;;1.19;73.67;91701.41;2071630;69;20135;-71
2023/01/16 00:50:35;;;;;;;;;;;;;;;1.15;73.98;91698.31;2068450;69;20043;-75
2023/01/16 00:53:01;;;;;;;;;;;;;;;1.13;74.32;91689.09;2072087;69;20048;-75
2023/01/16 00:55:26;;;;;;;;;;;;;;;1.18;73.97;91680.53;2071811;69;20469;-76
2023/01/16 00:57:52;;;;;;;;;;;;;;;1.12;74.38;91680.06;2071958;69;20688;-76
2023/01/16 01:00:20;;;;;;;;;;;;;;;1.12;73.78;91673.78;2071910;69;20103;-78
2023/01/16 01:02:46;;;;;;;;;;;;;;;1.14;74.24;91665.63;2071876;69;20061;-71
2023/01/16 01:05:12;;;;;;;;;;;;;;;1.04;74.27;91653.75;2071787;69;20071;-75
2023/01/16 01:07:37;;;;;;;;;;;;;;;1.11;74.44;91655.69;2071799;69;20052;-71
2023/01/16 01:10:03;;;;;;;;;;;;;;;1.00;73.70;91663.19;2071745;69;20084;-73
2023/01/16 01:12:28;;;;;;;;;;;;;;;1.06;74.14;91654.66;2071794;69;20047;-73
2023/01/16 01:14:54;;;;;;;;;;;;;;;1.09;74.23;91655.53;2071726;69;20157;-74
2023/01/16 01:17:19;;;;;;;;;;;;;;;0.94;74.08;91659.22;2071839;69;20048;-73
2023/01/16 01:19:45;;;;;;;;;;;;;;;1.00;74.21;91662.47;2068327;69;20506;-72
2023/01/16 01:22:10;;;;;;;;;;;;;;;1.01;74.15;91659.13;2071840;69;20048;-78
2023/01/16 01:24:36;;;;;;;;;;;;;;;1.00;73.98;91652.09;2071728;69;20048;-73
2023/01/16 01:27:01;;;;;;;;;;;;;;;1.04;74.66;91648.19;2071772;69;20456;-76
2023/01/16 01:29:27;;;;;;;;;;;;;;;1.13;73.63;91644.75;2071944;69;20036;-76
2023/01/16 01:31:52;;;;;;;;;;;;;;;1.00;74.45;91638.25;2071828;69;20487;-72
2023/01/16 01:34:17;;;;;;;;;;;;;;;1.04;74.98;91635.06;2071839;69;20047;-76
2023/01/16 01:36:43;;;;;;;;;;;;;;;1.05;74.36;91630.25;2071812;69;20044;-72
2023/01/16 01:39:08;;;;;;;;;;;;;;;1.03;74.48;91628.06;2071432;69;20040;-75
2023/01/16 01:41:34;;;;;;;;;;;;;;;1.08;74.99;91620.81;2071574;69;20089;-72
2023/01/16 01:43:59;;;;;;;;;;;;;;;1.15;75.20;91617.94;2071923;69;20040;-70
2023/01/16 01:46:40;;;;;;;;;;;;;;;1.12;75.07;91616.31;2071669;69;20173;-74
2023/01/16 01:49:35;;;;;;;;;;;;;;;1.09;74.43;91617.44;2068332;69;20080;-71
2023/01/16 01:52:03;;;;;;;;;;;;;;;1.08;74.46;91604.91;2068771;69;20064;-71
2023/01/16 01:54:45;;;;;;;;;;;;;;;1.06;74.55;91601.97;2071728;69;20049;-70
2023/01/16 01:57:17;;;;;;;;;;;;;;;1.00;73.93;91596.69;2065598;69;20072;-70
2023/01/16 01:59:48;;;;;;;;;;;;;;;0.95;73.60;91589.38;2071760;69;20067;-71
2023/01/16 02:02:16;;;;;;;;;;;;;;;0.82;73.89;91586.22;2071495;69;20049;-73
2023/01/16 02:04:43;;;;;;;;;;;;;;;0.83;74.53;91585.69;2071457;69;20524;-71
2023/01/16 02:07:12;;;;;;;;;;;;;;;0.89;74.12;91568.78;2068306;69;20041;-71
2023/01/16 02:09:37;;;;;;;;;;;;;;;0.86;73.79;91570.66;2071431;69;20143;-73
2023/01/16 02:12:04;;;;;;;;;;;;;;;0.89;74.23;91571.56;2071117;69;20131;-77
2023/01/16 02:14:31;;;;;;;;;;;;;;;0.84;73.36;91564.97;2071607;69;20127;-77
2023/01/16 02:20:05;;;;;;;;;;;;;;;0.57;75.96;91555.91;2071927;69;20126;-71
2023/01/16 02:22:50;;;;;;;;;;;;;;;0.65;75.46;91564.88;2071772;69;20041;-78
2023/01/16 02:25:34;;;;;;;;;;;;;;;0.59;75.12;91556.06;2064485;69;20102;-71
2023/01/16 02:28:26;;;;;;;;;;;;;;;0.59;74.58;91548.47;2071782;69;20052;-74
2023/01/16 02:31:11;;;;;;;;;;;;;;;0.57;76.01;91547.63;2071392;69;20066;-71
2023/01/16 02:33:42;;;;;;;;;;;;;;;0.57;75.43;91531.72;2072134;69;20064;-76
2023/01/16 02:36:27;;;;;;;;;;;;;;;0.57;75.14;91534.50;2071855;69;20052;-70
2023/01/16 02:38:58;;;;;;;;;;;;;;;0.46;76.58;91526.72;2071748;69;20084;-71
2023/01/16 02:41:56;;;;;;;;;;;;;;;0.57;75.26;91531.00;2068410;69;20048;-71
2023/01/16 02:44:27;;;;;;;;;;;;;;;0.61;74.70;91523.72;2057395;69;20056;-75
2023/01/16 02:47:15;;;;;;;;;;;;;;;0.56;75.15;91521.22;2057805;69;20049;-70
2023/01/16 02:49:59;;;;;;;;;;;;;;;0.57;74.86;91511.63;2057590;69;20515;-75
2023/01/16 02:52:43;;;;;;;;;;;;;;;0.12;76.87;91516.44;2054917;69;20049;-73
2023/01/16 02:55:20;;;;;;;;;;;;;;;0.27;77.40;91502.41;2057439;69;20046;-71
2023/01/16 02:57:47;;;;;;;;;;;;;;;0.35;75.28;91497.50;2057507;69;20441;-73
2023/01/16 03:00:19;;;;;;;;;;;;;;;0.44;75.20;91498.84;2057557;69;20061;-70
2023/01/16 03:02:45;;;;;;;;;;;;;;;0.49;75.34;91495.81;2057374;69;20041;-74
2023/01/16 03:05:11;;;;;;;;;;;;;;;0.46;75.76;91490.72;2057328;69;20038;-74
2023/01/16 03:07:55;;;;;;;;;;;;;;;0.47;74.86;91483.88;2057489;69;20422;-73
2023/01/16 03:10:20;;;;;;;;;;;;;;;0.36;75.12;91489.91;2057434;69;20564;-75
2023/01/16 03:13:04;;;;;;;;;;;;;;;0.35;74.90;91480.16;2056360;69;20173;-72
2023/01/16 03:15:50;;;;;;;;;;;;;;;0.28;74.61;91469.94;2053902;69;20062;-76
2023/01/16 03:18:34;;;;;;;;;;;;;;;0.42;74.97;91482.09;2056627;69;20081;-77
2023/01/16 03:21:08;;;;;;;;;;;;;;;0.32;74.73;91476.50;2069774;69;20487;-75
2023/01/16 03:23:36;;;;;;;;;;;;;;;0.39;74.51;91474.94;2071199;69;20052;-73
2023/01/16 03:26:22;;;;;;;;;;;;;;;0.34;75.02;91473.16;2071361;69;20055;-73
2023/01/16 03:28:55;;;;;;;;;;;;;;;0.34;75.34;91460.06;2069017;69;20050;-77
2023/01/16 03:31:23;;;;;;;;;;;;;;;0.38;74.67;91460.38;2071704;69;20128;-74
2023/01/16 03:34:08;;;;;;;;;;;;;;;0.33;74.25;91446.78;2071550;69;20041;-72
2023/01/16 03:36:57;;;;;;;;;;;;;;;0.35;75.48;91433.09;2071715;69;20083;-72
2023/01/16 03:39:28;;;;;;;;;;;;;;;0.37;73.91;91431.22;2069498;69;20055;-75
2023/01/16 03:41:58;;;;;;;;;;;;;;;0.28;73.84;91420.84;2071467;69;20388;-74
2023/01/16 03:44:29;;;;;;;;;;;;;;;0.28;74.26;91415.31;2071735;69;20510;-73
2023/01/16 03:46:55;;;;;;;;;;;;;;;0.23;74.75;91416.28;2071430;69;20057;-74
2023/01/16 03:49:24;;;;;;;;;;;;;;;0.23;75.11;91405.94;2071574;69;20084;-72
2023/01/16 03:51:53;;;;;;;;;;;;;;;-0.02;75.38;91406.09;2071448;69;20041;-70
2023/01/16 03:54:32;;;;;;;;;;;;;;;0.07;74.10;91399.16;2071290;69;20071;-74
2023/01/16 03:56:57;;;;;;;;;;;;;;;0.07;74.90;91398.44;2071453;69;20131;-74
2023/01/16 03:59:23;;;;;;;;;;;;;;;-0.01;74.79;91409.59;2067986;69;20136;-76
2023/01/16 04:01:58;;;;;;;;;;;;;;;0.10;74.81;91414.63;2071499;69;20486;-74
2023/01/16 04:04:35;;;;;;;;;;;;;;;0.04;75.14;91411.38;2068032;69;20053;-72
2023/01/16 04:07:13;;;;;;;;;;;;;;;-0.09;74.48;91406.19;2071463;69;20585;-71
2023/01/16 04:09:58;;;;;;;;;;;;;;;-0.07;73.91;91403.59;2071715;69;20049;-73
2023/01/16 04:12:27;;;;;;;;;;;;;;;-0.08;73.56;91396.63;2072054;69;20434;-77
2023/01/16 04:14:56;;;;;;;;;;;;;;;-0.05;74.12;91387.16;2072072;69;20432;-72
2023/01/16 04:17:22;;;;;;;;;;;;;;;-0.04;74.49;91378.28;2072107;69;20048;-71
2023/01/16 04:19:47;;;;;;;;;;;;;;;-0.15;76.52;91376.03;2072102;69;20040;-72
2023/01/16 04:22:20;;;;;;;;;;;;;;;-0.19;74.85;91358.38;2072259;69;20050;-75
2023/01/16 04:24:46;;;;;;;;;;;;;;;-0.30;75.17;91363.13;2072052;69;20507;-77
2023/01/16 04:27:11;;;;;;;;;;;;;;;-0.28;74.64;91349.47;2068766;69;20042;-75
2023/01/16 04:29:37;;;;;;;;;;;;;;;-0.34;74.36;91349.00;2072068;69;20041;-72
2023/01/16 04:32:02;;;;;;;;;;;;;;;-0.26;74.57;91348.91;2072058;69;20058;-71
2023/01/16 04:34:28;;;;;;;;;;;;;;;-0.33;74.09;91355.25;2072162;69;20052;-72
2023/01/16 04:36:53;;;;;;;;;;;;;;;-0.46;74.02;91344.53;2072112;69;20594;-74
2023/01/16 04:39:19;;;;;;;;;;;;;;;-0.57;74.68;91340.28;2071377;69;20044;-78
2023/01/16 04:41:50;;;;;;;;;;;;;;;-0.49;74.61;91342.94;2071198;69;20057;-71
2023/01/16 04:44:16;;;;;;;;;;;;;;;-0.55;74.58;91338.41;2068021;69;20052;-72
2023/01/16 04:46:41;;;;;;;;;;;;;;;-0.53;75.08;91332.28;2071168;69;20049;-73
2023/01/16 04:49:07;;;;;;;;;;;;;;;-0.53;75.01;91332.28;2067720;69;20084;-72
2023/01/16 04:51:32;;;;;;;;;;;;;;;-0.50;74.24;91339.44;2071283;69;20156;-76
2023/01/16 04:53:58;;;;;;;;;;;;;;;-0.48;74.84;91327.81;2071685;69;20088;-77
2023/01/16 04:56:23;;;;;;;;;;;;;;;-0.37;75.08;91324.53;2071971;69;20040;-78
2023/01/16 04:58:50;;;;;;;;;;;;;;;-0.27;75.32;91328.09;2071996;69;20479;-71
2023/01/16 05:01:17;;;;;;;;;;;;;;;-0.17;75.44;91322.59;2071278;69;20513;-76
2023/01/16 05:03:42;;;;;;;;;;;;;;;-0.12;74.82;91324.38;2071040;69;20060;-72
2023/01/16 05:06:08;;;;;;;;;;;;;;;-0.07;75.39;91313.03;2071682;69;20040;-72
2023/01/16 05:08:34;;;;;;;;;;;;;;;-0.04;74.13;91298.06;2071417;69;20060;-74
2023/01/16 05:11:01;;;;;;;;;;;;;;;-0.11;74.67;91292.63;2071349;69;20048;-70
2023/01/16 05:13:27;;;;;;;;;;;;;;;-0.20;75.76;91287.78;2071672;69;20183;-77
2023/01/16 05:15:52;;;;;;;;;;;;;;;-0.16;75.43;91277.03;2071633;69;20150;-72
2023/01/16 05:18:18;;;;;;;;;;;;;;;-0.17;75.20;91278.34;2071491;69;20053;-71
2023/01/16 05:20:43;;;;;;;;;;;;;;;-0.18;75.87;91271.34;2071684;69;20135;-71
2023/01/16 05:23:10;;;;;;;;;;;;;;;-0.29;75.81;91267.09;2071702;69;20468;-71
2023/01/16 05:25:36;;;;;;;;;;;;;;;-0.17;75.41;91262.47;2068563;69;20545;-76
2023/01/16 05:28:01;;;;;;;;;;;;;;;-0.16;74.88;91265.97;2071914;69;20542;-76
2023/01/16 05:30:27;;;;;;;;;;;;;;;-0.23;75.46;91245.41;2071818;69;20052;-71
2023/01/16 05:32:52;;;;;;;;;;;;;;;-0.15;75.13;91257.09;2072017;69;20080;-74
2023/01/16 05:35:19;;;;;;;;;;;;;;;-0.17;75.21;91264.53;2071884;69;20040;-73
2023/01/16 05:37:45;;;;;;;;;;;;;;;-0.16;75.61;91258.41;2071934;69;20127;-73
2023/01/16 05:40:10;;;;;;;;;;;;;;;-0.17;74.83;91253.47;2071648;69;20056;-75
2023/01/16 05:42:36;;;;;;;;;;;;;;;-0.18;75.67;91251.97;2071953;69;20103;-75
2023/01/16 05:45:02;;;;;;;;;;;;;;;-0.14;74.90;91250.25;2071903;69;20132;-71
2023/01/16 05:47:27;;;;;;;;;;;;;;;-0.20;73.84;91243.53;2071709;69;20051;-76
2023/01/16 05:49:53;;;;;;;;;;;;;;;-0.21;74.95;91233.78;2071667;69;20076;-75
2023/01/16 05:52:18;;;;;;;;;;;;;;;-0.19;74.39;91223.59;2071873;69;20053;-72
2023/01/16 05:54:44;;;;;;;;;;;;;;;-0.31;75.09;91220.66;2068337;69;20148;-76
2023/01/16 05:57:09;;;;;;;;;;;;;;;-0.28;74.74;91218.75;2071677;69;20074;-75
2023/01/16 05:59:35;;;;;;;;;;;;;;;-0.28;74.09;91210.47;2071792;69;20489;-72
2023/01/16 06:02:00;;;;;;;;;;;;;;;-0.27;74.14;91207.13;2068372;69;20507;-73
2023/01/16 06:04:26;;;;;;;;;;;;;;;-0.31;74.77;91214.41;2071173;69;20072;-70
2023/01/16 06:06:51;;;;;;;;;;;;;;;-0.39;75.39;91208.25;2071840;69;20048;-71
2023/01/16 06:09:17;;;;;;;;;;;;;;;-0.35;74.28;91212.06;2071747;69;20043;-72
2023/01/16 06:11:51;;;;;;;;;;;;;;;-0.28;74.13;91194.59;2071806;69;20505;-72
2023/01/16 06:14:17;;;;;;;;;;;;;;;-0.32;75.30;91186.03;2072053;69;20044;-73
2023/01/16 06:16:43;;;;;;;;;;;;;;;-0.33;75.03;91184.53;2071911;69;20480;-77
2023/01/16 06:19:08;;;;;;;;;;;;;;;-0.40;74.70;91179.88;2071837;69;20043;-77
2023/01/16 06:21:34;;;;;;;;;;;;;;;-0.49;74.39;91172.28;2071727;69;20045;-77
2023/01/16 06:23:59;;;;;;;;;;;;;;;-0.45;74.11;91172.59;2071670;69;20137;-76
2023/01/16 06:26:24;;;;;;;;;;;;;;;-0.46;74.09;91160.03;2071758;69;20044;-78
2023/01/16 06:28:50;;;;;;;;;;;;;;;-0.49;73.85;91160.50;2071667;69;20041;-77
2023/01/16 06:31:16;;;;;;;;;;;;;;;-0.48;73.35;91157.13;2071619;69;20071;-72
2023/01/16 06:33:42;;;;;;;;;;;;;;;-0.46;73.84;91146.22;2071738;69;20052;-71
2023/01/16 06:36:07;;;;;;;;;;;;;;;-0.46;74.38;91145.50;2071744;69;20037;-72
2023/01/16 06:38:33;;;;;;;;;;;;;;;-0.46;73.91;91137.19;2071550;69;20056;-71
2023/01/16 06:40:59;;;;;;;;;;;;;;;-0.52;74.02;91127.16;2071855;69;20048;-74
2023/01/16 06:43:25;;;;;;;;;;;;;;;-0.59;73.86;91119.72;2071732;69;20037;-76
2023/01/16 06:45:51;;;;;;;;;;;;;;;-0.53;73.42;91113.91;2068313;69;20135;-74
2023/01/16 06:48:17;;;;;;;;;;;;;;;-0.49;73.22;91099.69;2071736;69;20147;-73
2023/01/16 06:50:42;;;;;;;;;;;;;;;-0.51;73.19;91100.97;2071597;69;20046;-77
2023/01/16 06:53:08;;;;;;;;;;;;;;;-0.49;73.13;91097.63;2071461;69;20482;-77
2023/01/16 06:55:33;;;;;;;;;;;;;;;-0.50;73.23;91087.91;2071568;69;20041;-77
2023/01/16 06:57:59;;;;;;;;;;;;;;;-0.55;72.71;91080.59;2071537;69;20131;-72
2023/01/16 07:00:24;;;;;;;;;;;;;;;-0.61;72.86;91075.34;2071555;69;20469;-73
2023/01/16 07:02:56;;;;;;;;;;;;;;;-0.58;72.50;91067.94;2071510;69;20040;-71
2023/01/16 07:05:24;;;;;;;;;;;;;;;-0.55;72.45;91056.47;2071101;69;20446;-70
2023/01/16 07:07:51;;;;;;;;;;;;;;;-0.61;72.43;91060.78;2071311;69;20040;-75
2023/01/16 07:10:21;;;;;;;;;;;;;;;-0.66;72.83;91045.22;2071523;69;20202;-71
2023/01/16 07:12:49;;;;;;;;;;;;;;;-0.77;72.75;91036.19;2071772;69;20040;-71
2023/01/16 07:23:33;;;;;;;;;;;;;;;-0.61;71.93;91019.34;2071626;69;20047;-71
2023/01/16 07:26:00;;;;;;;;;;;;;;;-0.68;72.40;91012.66;2071542;69;20430;-70
2023/01/16 07:28:27;;;;;;;;;;;;;;;-0.66;72.46;91007.25;2071618;69;20050;-69
2023/01/16 07:30:53;;;;;;;;;;;;;;;-0.89;72.27;90960.69;2071183;69;20120;-71
2023/01/16 07:33:18;;;;;;;;;;;;;;;-0.62;72.30;91001.31;2071679;69;20404;-71
2023/01/16 07:35:45;;;;;;;;;;;;;;;-0.65;72.35;90988.63;2068042;69;20186;-73
2023/01/16 07:38:11;;;;;;;;;;;;;;;-0.57;71.81;90984.44;2071393;69;20479;-73
2023/01/16 07:40:36;;;;;;;;;;;;;;;-0.58;71.31;90977.47;2071470;69;20075;-75
2023/01/16 07:43:01;;;;;;;;;;;;;;;-0.72;72.06;90975.69;2071488;69;20140;-73
2023/01/16 07:45:27;;;;;;;;;;;;;;;-0.61;71.93;90970.31;2073083;69;20056;-71
2023/01/16 07:47:52;;;;;;;;;;;;;;;-0.71;71.76;90966.09;2073528;69;20551;-71
2023/01/16 07:50:18;;;;;;;;;;;;;;;-0.66;71.00;90967.84;2073984;69;20044;-73
2023/01/16 07:52:45;;;;;;;;;;;;;;;-0.61;71.48;90967.56;2074550;69;20084;-72
2023/01/16 07:55:11;;;;;;;;;;;;;;;-0.74;71.08;90961.72;2072257;69;20114;-71
2023/01/16 07:57:37;;;;;;;;;;;;;;;-0.60;70.93;90957.22;2068593;69;20068;-72
2023/01/16 08:00:04;;;;;;;;;;;;;;;-0.57;70.70;90942.25;2072064;69;20134;-71
2023/01/16 08:02:38;;;;;;;;;;;;;;;-0.72;71.08;90943.28;2072117;69;20494;-74
2023/01/16 08:05:04;;;;;;;;;;;;;;;-0.72;71.36;90943.28;2071921;69;20124;-72
2023/01/16 08:07:32;;;;;;;;;;;;;;;-0.75;70.62;90933.38;2072119;69;20431;-72
2023/01/16 08:09:58;;;;;;;;;;;;;;;-0.80;71.13;90917.81;2071960;69;20051;-74
2023/01/16 08:12:24;;;;;;;;;;;;;;;-0.72;70.86;90914.91;2071779;69;20044;-73
2023/01/16 08:14:49;;;;;;;;;;;;;;;-0.71;71.19;90911.56;2072244;69;20044;-78
2023/01/16 08:17:15;;;;;;;;;;;;;;;-0.72;70.92;90906.63;2072524;69;20047;-74
2023/01/16 08:19:40;;;;;;;;;;;;;;;-0.67;71.17;90900.06;2075098;69;20178;-74
2023/01/16 08:22:06;;;;;;;;;;;;;;;-0.58;70.50;90896.56;2071981;69;20477;-72
2023/01/16 08:24:32;;;;;;;;;;;;;;;-0.71;71.44;90885.97;2065873;69;20044;-72
2023/01/16 08:26:58;;;;;;;;;;;;;;;-0.65;71.12;90886.38;2072068;69;20037;-71
2023/01/16 08:29:24;;;;;;;;;;;;;;;-0.65;71.16;90886.38;2071096;69;20075;-74
2023/01/16 08:31:49;;;;;;;;;;;;;;;-0.70;71.47;90871.56;2071212;69;20403;-72
2023/01/16 08:34:15;;;;;;;;;;;;;;;-0.73;69.12;90866.47;2071649;69;20563;-72
2023/01/16 08:36:41;;;;;;;;;;;;;;;-0.64;68.83;90858.19;2071524;69;20118;-70
2023/01/16 08:39:08;;;;;;;;;;;;;;;-0.64;68.56;90855.44;2071528;69;20184;-72
2023/01/16 08:52:34;;;;;;;;;;;;;;;0.95;66.65;90826.66;2071088;69;20056;-77
2023/01/16 08:54:59;;;;;;;;;;;;;;;1.20;64.61;90818.59;2070885;69;20068;-79
2023/01/16 08:57:25;;;;;;;;;;;;;;;1.36;63.54;90820.94;2071028;69;20056;-76
2023/01/16 08:59:51;;;;;;;;;;;;;;;2.03;63.74;90803.63;2071527;69;20045;-72
2023/01/16 09:02:16;;;;;;;;;;;;;;;2.24;64.12;90796.50;2071908;69;20129;-76
2023/01/16 09:04:44;;;;;;;;;;;;;;;2.39;61.56;90790.50;2072086;69;20040;-76
2023/01/16 09:07:09;;;;;;;;;;;;;;;2.48;62.10;90789.63;2072011;69;20044;-70
2023/01/16 09:09:35;;;;;;;;;;;;;;;2.27;60.05;90793.25;2071907;69;20117;-71
2023/01/16 09:14:44;;;;;;;;;;;;;;;2.51;60.95;90784.91;2072111;69;20049;-71
2023/01/16 09:17:10;;;;;;;;;;;;;;;3.00;58.18;90788.44;2072016;69;20531;-71
2023/01/16 09:19:36;;;;;;;;;;;;;;;3.25;59.25;90790.56;2071924;69;20051;-73
2023/01/16 09:22:05;;;;;;;;;;;;;;;3.14;58.38;90794.09;2071915;69;20044;-76
2023/01/16 09:24:34;;;;;;;;;;;;;;;3.78;60.25;90784.38;2071880;69;20084;-71
2023/01/16 09:27:00;;;;;;;;;;;;;;;3.73;58.47;90775.09;2072086;69;20053;-72
2023/01/16 09:29:26;;;;;;;;;;;;;;;4.32;56.54;90760.78;2071963;69;20238;-71
2023/01/16 09:31:52;;;;;;;;;;;;;;;4.06;55.11;90746.94;2071921;69;20161;-75
2023/01/16 09:34:17;;;;;;;;;;;;;;;4.69;55.94;90738.31;2071843;69;20044;-72
2023/01/16 09:36:43;;;;;;;;;;;;;;;3.83;52.20;90736.69;2072059;69;21873;-73
2023/01/16 09:39:08;;;;;;;;;;;;;;;3.86;53.22;90737.50;2075072;69;20151;-77
2023/01/16 09:44:24;;;;;;;;;;;;;;;3.57;54.47;90732.47;2072005;69;20041;-72
2023/01/16 09:46:50;;;;;;;;;;;;;;;4.53;53.55;90721.47;2071831;69;20487;-73
2023/01/16 09:49:46;;;;;;;;;;;;;;;5.27;53.36;90725.09;2071789;69;20135;-71
2023/01/16 10:00:34;;;;;;;;;;;;;;;4.50;52.71;90697.66;2071743;69;20097;-74
2023/01/16 10:02:59;;;;;;;;;;;;;;;4.96;51.63;90700.59;2071542;69;20106;-71
2023/01/16 10:05:30;;;;;;;;;;;;;;;5.41;49.90;90694.34;2071628;69;20410;-70
2023/01/16 10:08:18;;;;;;;;;;;;;;;6.08;50.90;90684.19;2068363;69;20092;-70
2023/01/16 10:10:46;;;;;;;;;;;;;;;6.22;49.54;90667.31;2071872;69;20052;-74
2023/01/16 10:13:12;;;;;;;;;;;;;;;6.86;47.75;90653.94;2071947;69;20056;-75
2023/01/16 10:15:46;;;;;;;;;;;;;;;7.11;48.30;90645.19;2071617;69;20044;-74
2023/01/16 10:18:34;;;;;;;;;;;;;;;7.67;47.01;90627.72;2071698;69;20459;-73
2023/01/16 10:21:18;;;;;;;;;;;;;;;6.76;47.10;90622.75;2071899;69;20121;-70
2023/01/16 10:24:01;;;;;;;;;;;;;;;7.11;44.80;90608.81;2071633;69;20042;-74
2023/01/16 10:26:34;;;;;;;;;;;;;;;7.13;45.21;90603.28;2068204;69;20044;-73
2023/01/16 10:29:17;;;;;;;;;;;;;;;6.90;48.79;90586.97;2071566;69;20047;-74
2023/01/16 10:31:47;;;;;;;;;;;;;;;8.02;45.79;90590.53;2071219;69;20148;-76
2023/01/16 10:34:20;;;;;;;;;;;;;;;8.57;44.82;90587.56;2071457;69;20056;-73
2023/01/16 10:36:50;;;;;;;;;;;;;;;8.45;43.13;90581.53;2070828;69;20098;-74
2023/01/16 10:39:18;;;;;;;;;;;;;;;9.06;42.77;90580.03;2070671;69;20463;-78
2023/01/16 10:50:18;;;;;;;;;;;;;;;8.23;42.60;90567.44;2071479;69;20151;-72
2023/01/16 10:52:45;;;;;;;;;;;;;;;9.06;42.46;90566.00;2071564;69;20048;-72
2023/01/16 10:55:11;;;;;;;;;;;;;;;9.42;40.41;90552.38;2071514;69;20076;-73
2023/01/16 10:57:40;;;;;;;;;;;;;;;9.18;42.45;90541.13;2068252;69;20159;-74
2023/01/16 11:00:13;;;;;;;;;;;;;;;9.12;41.00;90529.72;2071534;69;20049;-73
2023/01/16 11:02:43;;;;;;;;;;;;;;;10.16;40.63;90513.78;2071729;69;20041;-75
2023/01/16 11:05:25;;;;;;;;;;;;;;;9.42;39.45;90504.66;2071692;69;20044;-72
2023/01/16 11:07:53;;;;;;;;;;;;;;;8.79;41.46;90492.19;2071475;69;20050;-78
2023/01/16 11:10:20;;;;;;;;;;;;;;;9.90;40.89;90499.00;2071502;69;20048;-77
2023/01/16 11:18:29;;;;;;;;;;;;;;;7.23;44.30;90479.84;2071588;69;20048;-72
2023/01/16 11:21:14;;;;;;;;;;;;;;;8.82;43.71;90481.78;2068219;69;20048;-74
2023/01/16 11:23:41;;;;;;;;;;;;;;;9.13;42.95;90467.31;2071554;69;20052;-73
2023/01/16 11:26:07;;;;;;;;;;;;;;;9.95;41.42;90463.31;2071581;69;20047;-71
2023/01/16 11:28:34;;;;;;;;;;;;;;;10.71;40.54;90461.06;2071475;69;20483;-77
2023/01/16 11:31:01;;;;;;;;;;;;;;;10.30;41.38;90453.69;2071463;69;20590;-77
2023/01/16 11:33:32;;;;;;;;;;;;;;;10.00;40.25;90450.78;2071637;69;20467;-77
2023/01/16 11:35:59;;;;;;;;;;;;;;;10.82;40.98;90442.31;2071590;69;20055;-75
2023/01/16 11:38:27;;;;;;;;;;;;;;;11.51;38.21;90438.22;2071397;69;20127;-73
2023/01/16 11:40:55;;;;;;;;;;;;;;;11.33;38.50;90432.94;2071552;69;20052;-73
2023/01/16 11:46:26;;;;;;;;;;;;;;;9.34;38.75;90415.28;2071664;69;20420;-71
2023/01/16 11:48:53;;;;;;;;;;;;;;;9.28;37.75;90408.78;2071451;69;20052;-74
2023/01/16 11:51:21;;;;;;;;;;;;;;;8.72;36.28;90402.94;2071412;69;20044;-72
2023/01/16 11:53:47;;;;;;;;;;;;;;;8.37;37.79;90413.75;2071293;69;20135;-74
2023/01/16 11:56:22;;;;;;;;;;;;;;;8.58;40.06;90406.00;2071434;69;20198;-74
2023/01/16 11:59:06;;;;;;;;;;;;;;;8.72;39.32;90405.72;2071406;69;20068;-71
2023/01/16 12:02:15;;;;;;;;;;;;;;;7.33;39.82;90395.53;2071489;69;20483;-71
2023/01/16 12:04:19;;;;;;;;;;;;;;;7.59;39.65;90388.06;2071454;69;20532;-73
2023/01/16 12:07:02;;;;;;;;;;;;;;;7.35;38.88;90381.63;2071434;69;20044;-72
2023/01/16 12:09:42;;;;;;;;;;;;;;;7.69;40.48;90386.97;2068043;69;20051;-71
2023/01/16 12:14:59;;;;;;;;;;;;;;;8.33;39.18;90368.03;2071572;69;20143;-73
2023/01/16 12:17:24;;;;;;;;;;;;;;;7.95;39.40;90356.34;2071564;69;20548;-71
2023/01/16 12:20:02;;;;;;;;;;;;;;;7.31;41.22;90354.22;2071597;69;20144;-72
2023/01/16 12:22:34;;;;;;;;;;;;;;;6.69;40.20;90345.03;2071582;69;20163;-72
2023/01/16 12:25:06;;;;;;;;;;;;;;;5.64;42.68;90344.44;2071481;69;20040;-73
2023/01/16 12:27:43;;;;;;;;;;;;;;;6.28;42.30;90340.00;2071675;69;20087;-75
2023/01/16 12:30:34;;;;;;;;;;;;;;;6.18;42.78;90331.19;2068501;69;20178;-76
2023/01/16 12:33:00;;;;;;;;;;;;;;;6.91;42.11;90319.22;2068716;69;20045;-76
2023/01/16 12:35:32;;;;;;;;;;;;;;;7.05;40.96;90316.91;2072096;69;20052;-72
2023/01/16 12:38:10;;;;;;;;;;;;;;;6.94;40.24;90310.25;2072276;69;20068;-72
2023/01/16 12:43:18;;;;;;;;;;;;;;;7.12;40.04;90313.69;2072028;69;20047;-78
2023/01/16 12:43:54;;;;;;;;;;;;;;;6.93;39.49;90310.91;2068535;69;20041;-73
2023/01/16 12:46:29;;;;;;;;;;;;;;;6.96;39.72;90292.81;2072157;69;20559;-75
2023/01/16 12:49:14;;;;;;;;;;;;;;;7.06;40.14;90293.91;2072175;69;20140;-75
2023/01/16 12:51:57;;;;;;;;;;;;;;;6.47;40.36;90289.00;2072158;69;20051;-76
2023/01/16 12:54:26;;;;;;;;;;;;;;;6.69;40.87;90279.97;2071938;69;20460;-76
2023/01/16 12:57:10;;;;;;;;;;;;;;;6.56;41.83;90273.97;2072209;69;20140;-72
2023/01/16 12:59:43;;;;;;;;;;;;;;;5.85;42.91;90276.88;2072022;69;20061;-78
2023/01/16 13:02:09;;;;;;;;;;;;;;;6.25;41.39;90272.13;2068666;69;20048;-75
2023/01/16 13:04:42;;;;;;;;;;;;;;;6.33;41.55;90261.25;2071944;69;20048;-72
2023/01/16 13:07:13;;;;;;;;;;;;;;;6.39;42.07;90260.75;2072330;69;20139;-71
2023/01/16 13:09:44;;;;;;;;;;;;;;;6.31;42.85;90258.38;2071889;69;20044;-72
2023/01/16 13:15:09;;;;;;;;;;;;;;;6.28;42.95;90247.78;2071829;69;20130;-73
2023/01/16 13:17:40;;;;;;;;;;;;;;;6.36;43.41;90242.47;2071938;69;20057;-74
2023/01/16 13:20:11;;;;;;;;;;;;;;;6.20;43.70;90234.25;2072102;69;20143;-72
2023/01/16 13:22:46;;;;;;;;;;;;;;;5.58;44.12;90236.03;2072065;69;20477;-73
2023/01/16 13:25:22;;;;;;;;;;;;;;;5.45;44.78;90226.50;2071851;69;20048;-73
2023/01/16 13:27:54;;;;;;;;;;;;;;;5.17;46.83;90223.28;2071951;69;20137;-75
2023/01/16 13:30:20;;;;;;;;;;;;;;;5.28;44.86;90216.75;2071959;69;20045;-77
2023/01/16 13:32:58;;;;;;;;;;;;;;;5.58;44.88;90224.88;2071875;69;20166;-72
2023/01/16 13:35:27;;;;;;;;;;;;;;;5.43;44.70;90217.31;2071921;69;20048;-71
2023/01/16 13:38:07;;;;;;;;;;;;;;;5.42;44.95;90205.44;2071751;69;20396;-73
2023/01/16 13:40:55;;;;;;;;;;;;;;;5.25;45.00;90209.66;2072006;69;20040;-72
2023/01/16 13:46:09;;;;;;;;;;;;;;;5.48;44.77;90202.16;2071962;69;20464;-77
2023/01/16 13:48:36;;;;;;;;;;;;;;;5.66;44.87;90205.66;2071830;69;20060;-76
2023/01/16 13:51:23;;;;;;;;;;;;;;;5.77;44.72;90201.91;2068592;69;20090;-73
2023/01/16 13:54:01;;;;;;;;;;;;;;;5.61;44.58;90210.38;2071888;69;20157;-76
2023/01/16 13:56:28;;;;;;;;;;;;;;;5.64;45.14;90208.38;2071997;69;20173;-72
2023/01/16 13:58:55;;;;;;;;;;;;;;;5.55;45.01;90198.28;2071870;69;20044;-74
2023/01/16 14:01:29;;;;;;;;;;;;;;;5.53;44.46;90195.38;2071731;69;20232;-75
2023/01/16 14:04:13;;;;;;;;;;;;;;;5.58;45.32;90192.09;2068612;69;20391;-77
2023/01/16 14:06:43;;;;;;;;;;;;;;;5.38;45.60;90196.91;2072020;69;20051;-74
2023/01/16 14:09:18;;;;;;;;;;;;;;;5.40;45.19;90191.41;2071840;69;20057;-76